createdAt,value
2023-02-22T00:00:14.910Z,0.00
2023-02-22T00:01:15.233Z,0.00
2023-02-22T00:02:14.947Z,0.00
2023-02-22T00:03:14.969Z,0.00
2023-02-22T00:04:14.865Z,0.00
2023-02-22T00:05:14.853Z,0.00
2023-02-22T00:06:14.826Z,0.00
2023-02-22T00:07:14.817Z,0.00
2023-02-22T00:08:14.974Z,0.00
2023-02-22T00:09:14.841Z,0.00
2023-02-22T00:10:14.812Z,0.00
2023-02-22T00:11:15.034Z,0.00
2023-02-22T00:12:14.781Z,0.00
2023-02-22T00:13:14.762Z,0.00
2023-02-22T00:14:14.791Z,0.00
2023-02-22T00:15:14.749Z,0.00
2023-02-22T00:16:14.750Z,0.00
2023-02-22T00:17:14.720Z,0.00
2023-02-22T00:18:14.703Z,0.00
2023-02-22T00:19:14.702Z,0.00
2023-02-22T00:20:14.693Z,0.00
2023-02-22T00:21:14.826Z,0.00
2023-02-22T00:22:14.650Z,0.00
2023-02-22T00:23:14.658Z,0.00
2023-02-22T00:24:14.641Z,0.00
2023-02-22T00:25:14.641Z,0.00
2023-02-22T00:26:14.609Z,0.00
2023-02-22T00:27:14.609Z,0.00
2023-02-22T00:28:15.290Z,0.00
2023-02-22T00:29:14.580Z,0.00
2023-02-22T00:30:14.589Z,0.00
2023-02-22T00:31:15.054Z,0.00
2023-02-22T00:32:14.647Z,0.00
2023-02-22T00:33:14.562Z,0.00
2023-02-22T00:34:14.528Z,0.00
2023-02-22T00:35:14.540Z,0.00
2023-02-22T00:36:14.540Z,0.00
2023-02-22T00:37:14.550Z,0.00
2023-02-22T00:38:14.473Z,0.00
2023-02-22T00:39:14.472Z,0.00
2023-02-22T00:40:14.442Z,0.00
2023-02-22T00:41:14.870Z,0.00
2023-02-22T00:42:14.459Z,0.00
2023-02-22T00:43:14.425Z,0.00
2023-02-22T00:44:14.426Z,0.00
2023-02-22T00:45:14.407Z,0.00
2023-02-22T00:46:14.412Z,0.00
2023-02-22T00:47:14.390Z,0.00
2023-02-22T00:48:14.379Z,0.00
2023-02-22T00:49:14.358Z,0.00
2023-02-22T00:50:14.335Z,0.00
2023-02-22T00:51:14.756Z,0.00
2023-02-22T00:52:14.322Z,0.00
2023-02-22T00:53:14.313Z,0.00
2023-02-22T00:54:14.318Z,0.00
2023-02-22T00:55:14.292Z,0.00
2023-02-22T00:56:14.267Z,0.00
2023-02-22T00:57:14.270Z,0.00
2023-02-22T00:58:14.240Z,0.00
2023-02-22T00:59:14.255Z,0.00
2023-02-22T01:00:14.284Z,0.00
2023-02-22T01:01:14.633Z,0.00
2023-02-22T01:02:14.218Z,0.00
2023-02-22T01:03:14.200Z,0.00
2023-02-22T01:04:14.180Z,0.00
2023-02-22T01:05:14.179Z,0.00
2023-02-22T01:06:14.179Z,0.00
2023-02-22T01:07:14.156Z,0.00
2023-02-22T01:08:14.203Z,0.00
2023-02-22T01:09:14.136Z,0.00
2023-02-22T01:10:14.108Z,0.00
2023-02-22T01:11:14.356Z,0.00
2023-02-22T01:12:14.121Z,0.00
2023-02-22T01:13:14.169Z,0.00
2023-02-22T01:14:14.118Z,0.00
2023-02-22T01:15:14.182Z,0.00
2023-02-22T01:16:14.171Z,0.00
2023-02-22T01:17:14.138Z,0.00
2023-02-22T01:18:14.240Z,0.00
2023-02-22T01:19:14.163Z,0.00
2023-02-22T01:20:14.198Z,0.00
2023-02-22T01:21:14.341Z,0.00
2023-02-22T01:22:14.178Z,0.00
2023-02-22T01:23:14.160Z,0.00
2023-02-22T01:24:14.228Z,0.00
2023-02-22T01:25:14.198Z,0.00
2023-02-22T01:26:14.160Z,0.00
2023-02-22T01:27:14.199Z,0.00
2023-02-22T01:28:14.167Z,0.00
2023-02-22T01:29:13.905Z,0.00
2023-02-22T01:30:14.235Z,0.00
2023-02-22T01:31:13.922Z,0.00
2023-02-22T01:32:13.906Z,0.00
2023-02-22T01:33:13.864Z,0.00
2023-02-22T01:34:13.867Z,0.00
2023-02-22T01:35:13.845Z,0.00
2023-02-22T01:36:13.819Z,0.00
2023-02-22T01:37:13.830Z,0.00
2023-02-22T01:38:13.787Z,0.00
2023-02-22T01:39:13.785Z,0.00
2023-02-22T01:40:13.768Z,0.00
2023-02-22T01:41:13.853Z,0.00
2023-02-22T01:42:13.749Z,0.00
2023-02-22T01:43:13.777Z,0.00
2023-02-22T01:44:13.723Z,0.00
2023-02-22T01:45:13.728Z,0.00
2023-02-22T01:46:13.717Z,0.00
2023-02-22T01:47:13.696Z,0.00
2023-02-22T01:48:13.675Z,0.00
2023-02-22T01:49:13.713Z,0.00
2023-02-22T01:50:13.657Z,0.00
2023-02-22T01:51:13.680Z,0.00
2023-02-22T01:52:13.636Z,0.00
2023-02-22T01:53:13.622Z,0.00
2023-02-22T01:54:13.632Z,0.00
2023-02-22T01:55:13.654Z,0.00
2023-02-22T01:56:13.591Z,0.00
2023-02-22T01:57:13.575Z,0.00
2023-02-22T01:58:13.564Z,0.00
2023-02-22T01:59:13.573Z,0.00
2023-02-22T02:00:13.546Z,0.00
2023-02-22T02:01:13.533Z,0.00
2023-02-22T02:02:13.513Z,0.00
2023-02-22T02:03:13.514Z,0.00
2023-02-22T02:04:13.545Z,0.00
2023-02-22T02:05:13.529Z,0.00
2023-02-22T02:06:13.511Z,0.00
2023-02-22T02:07:13.464Z,0.00
2023-02-22T02:08:13.452Z,0.00
2023-02-22T02:09:13.444Z,0.00
2023-02-22T02:10:13.457Z,0.00
2023-02-22T02:11:13.424Z,0.00
2023-02-22T02:12:13.393Z,0.00
2023-02-22T02:13:13.433Z,0.00
2023-02-22T02:14:13.390Z,0.00
2023-02-22T02:15:13.381Z,0.00
2023-02-22T02:16:13.362Z,0.00
2023-02-22T02:17:13.452Z,0.00
2023-02-22T02:18:13.370Z,0.00
2023-02-22T02:19:13.340Z,0.00
2023-02-22T02:20:13.318Z,0.00
2023-02-22T02:21:13.314Z,0.00
2023-02-22T02:22:13.296Z,0.00
2023-02-22T02:23:13.309Z,0.00
2023-02-22T02:24:13.272Z,0.00
2023-02-22T02:25:13.283Z,0.00
2023-02-22T02:26:13.250Z,0.00
2023-02-22T02:27:13.256Z,0.00
2023-02-22T02:28:13.237Z,0.00
2023-02-22T02:29:13.248Z,0.00
2023-02-22T02:30:13.271Z,0.00
2023-02-22T02:31:13.196Z,0.00
2023-02-22T02:32:13.320Z,0.00
2023-02-22T02:33:13.178Z,0.00
2023-02-22T02:34:13.186Z,0.00
2023-02-22T02:35:13.180Z,0.00
2023-02-22T02:36:13.136Z,0.00
2023-02-22T02:37:13.130Z,0.00
2023-02-22T02:38:13.122Z,0.00
2023-02-22T02:39:13.110Z,0.00
2023-02-22T02:40:13.139Z,0.00
2023-02-22T02:41:13.096Z,0.00
2023-02-22T02:42:13.068Z,0.00
2023-02-22T02:43:13.058Z,0.00
2023-02-22T02:44:13.050Z,0.00
2023-02-22T02:45:13.048Z,0.00
2023-02-22T02:46:13.057Z,0.00
2023-02-22T02:47:13.126Z,0.00
2023-02-22T02:48:13.008Z,0.00
2023-02-22T02:49:12.998Z,0.00
2023-02-22T02:50:12.984Z,0.00
2023-02-22T02:51:12.991Z,0.00
2023-02-22T02:52:13.012Z,0.00
2023-02-22T02:53:12.959Z,0.00
2023-02-22T02:54:12.947Z,0.00
2023-02-22T02:55:12.934Z,0.00
2023-02-22T02:56:12.913Z,0.00
2023-02-22T02:57:12.937Z,0.00
2023-02-22T02:58:12.899Z,0.00
2023-02-22T02:59:12.914Z,0.00
2023-02-22T03:00:12.871Z,0.00
2023-02-22T03:01:12.925Z,0.00
2023-02-22T03:02:12.858Z,0.00
2023-02-22T03:03:12.839Z,0.00
2023-02-22T03:04:12.818Z,0.00
2023-02-22T03:05:12.822Z,0.00
2023-02-22T03:06:12.800Z,0.00
2023-02-22T03:07:12.825Z,0.00
2023-02-22T03:08:12.792Z,0.00
2023-02-22T03:09:12.779Z,0.00
2023-02-22T03:10:12.772Z,0.00
2023-02-22T03:11:12.767Z,0.00
2023-02-22T03:12:12.754Z,0.00
2023-02-22T03:13:12.752Z,0.00
2023-02-22T03:14:12.759Z,0.00
2023-02-22T03:15:12.712Z,0.00
2023-02-22T03:16:12.760Z,0.00
2023-02-22T03:17:12.840Z,0.00
2023-02-22T03:18:13.196Z,0.00
2023-02-22T03:19:12.685Z,0.00
2023-02-22T03:20:12.812Z,0.00
2023-02-22T03:21:12.677Z,0.00
2023-02-22T03:22:12.701Z,0.00
2023-02-22T03:23:12.741Z,0.00
2023-02-22T03:24:12.703Z,0.00
2023-02-22T03:25:12.701Z,0.00
2023-02-22T03:26:12.656Z,0.00
2023-02-22T03:27:12.714Z,0.00
2023-02-22T03:28:12.718Z,0.00
2023-02-22T03:29:12.618Z,0.00
2023-02-22T03:30:13.051Z,0.00
2023-02-22T03:31:12.731Z,0.00
2023-02-22T03:32:12.724Z,0.00
2023-02-22T03:33:12.501Z,0.00
2023-02-22T03:34:12.483Z,0.00
2023-02-22T03:35:12.489Z,0.00
2023-02-22T03:36:12.464Z,0.00
2023-02-22T03:37:12.462Z,0.00
2023-02-22T03:38:12.458Z,0.00
2023-02-22T03:39:12.473Z,0.00
2023-02-22T03:40:12.435Z,0.00
2023-02-22T03:41:12.418Z,0.00
2023-02-22T03:42:12.396Z,0.00
2023-02-22T03:43:12.407Z,0.00
2023-02-22T03:44:12.991Z,0.00
2023-02-22T03:45:12.399Z,0.00
2023-02-22T03:46:12.404Z,0.00
2023-02-22T03:47:12.352Z,0.00
2023-02-22T03:48:12.339Z,0.00
2023-02-22T03:49:12.326Z,0.00
2023-02-22T03:50:12.310Z,0.00
2023-02-22T03:51:12.325Z,0.00
2023-02-22T03:52:12.288Z,0.00
2023-02-22T03:53:12.276Z,0.00
2023-02-22T03:54:12.276Z,0.00
2023-02-22T03:55:12.586Z,0.00
2023-02-22T03:56:12.238Z,0.00
2023-02-22T03:57:12.235Z,0.00
2023-02-22T03:58:12.225Z,0.00
2023-02-22T03:59:12.246Z,0.00
2023-02-22T04:00:12.192Z,0.00
2023-02-22T04:01:12.197Z,0.00
2023-02-22T04:02:12.163Z,0.00
2023-02-22T04:03:12.163Z,0.00
2023-02-22T04:04:12.150Z,0.00
2023-02-22T04:05:12.155Z,0.00
2023-02-22T04:06:12.123Z,0.00
2023-02-22T04:07:12.178Z,0.00
2023-02-22T04:08:12.102Z,0.00
2023-02-22T04:09:12.105Z,0.00
2023-02-22T04:10:12.090Z,0.00
2023-02-22T04:11:12.078Z,0.00
2023-02-22T04:12:12.079Z,0.00
2023-02-22T04:13:12.286Z,0.00
2023-02-22T04:14:12.034Z,0.00
2023-02-22T04:15:12.034Z,0.00
2023-02-22T04:16:12.071Z,0.00
2023-02-22T04:17:12.042Z,0.00
2023-02-22T04:18:11.994Z,0.00
2023-02-22T04:19:11.989Z,0.00
2023-02-22T04:20:11.976Z,0.00
2023-02-22T04:21:11.962Z,0.00
2023-02-22T04:22:11.947Z,0.00
2023-02-22T04:23:11.967Z,0.00
2023-02-22T04:24:11.932Z,0.00
2023-02-22T04:25:11.922Z,0.00
2023-02-22T04:26:11.902Z,0.00
2023-02-22T04:27:11.928Z,0.00
2023-02-22T04:28:11.883Z,0.00
2023-02-22T04:29:11.897Z,0.00
2023-02-22T04:30:11.919Z,0.00
2023-02-22T04:31:11.882Z,0.00
2023-02-22T04:32:11.891Z,0.00
2023-02-22T04:33:11.826Z,0.00
2023-02-22T04:34:11.830Z,0.00
2023-02-22T04:35:11.803Z,0.00
2023-02-22T04:36:11.799Z,0.00
2023-02-22T04:37:11.797Z,0.00
2023-02-22T04:38:11.780Z,0.00
2023-02-22T04:39:11.754Z,0.00
2023-02-22T04:40:11.759Z,0.00
2023-02-22T04:41:11.730Z,0.00
2023-02-22T04:42:11.723Z,0.00
2023-02-22T04:43:11.726Z,0.00
2023-02-22T04:44:11.718Z,0.00
2023-02-22T04:45:11.704Z,0.00
2023-02-22T04:46:11.729Z,0.00
2023-02-22T04:47:11.663Z,0.00
2023-02-22T04:48:11.655Z,0.00
2023-02-22T04:49:11.638Z,0.00
2023-02-22T04:50:11.643Z,0.00
2023-02-22T04:51:11.615Z,0.00
2023-02-22T04:52:11.615Z,0.00
2023-02-22T04:53:11.595Z,0.00
2023-02-22T04:54:18.682Z,0.00
2023-02-22T04:55:11.590Z,0.00
2023-02-22T04:56:11.611Z,0.00
2023-02-22T04:57:11.584Z,0.00
2023-02-22T04:58:11.556Z,0.00
2023-02-22T04:59:11.540Z,0.00
2023-02-22T05:00:11.555Z,0.00
2023-02-22T05:01:11.500Z,0.00
2023-02-22T05:02:11.560Z,0.00
2023-02-22T05:03:11.489Z,0.00
2023-02-22T05:04:11.489Z,0.00
2023-02-22T05:05:11.450Z,0.00
2023-02-22T05:06:11.451Z,0.00
2023-02-22T05:07:11.441Z,0.00
2023-02-22T05:08:11.452Z,0.00
2023-02-22T05:09:11.442Z,0.00
2023-02-22T05:10:11.416Z,0.00
2023-02-22T05:11:11.422Z,0.00
2023-02-22T05:12:11.394Z,0.00
2023-02-22T05:13:11.398Z,0.00
2023-02-22T05:14:11.382Z,0.00
2023-02-22T05:15:11.396Z,0.00
2023-02-22T05:16:11.409Z,0.00
2023-02-22T05:17:11.326Z,0.00
2023-02-22T05:18:11.349Z,0.00
2023-02-22T05:19:11.315Z,0.00
2023-02-22T05:20:11.290Z,0.00
2023-02-22T05:21:11.294Z,0.00
2023-02-22T05:22:11.286Z,0.00
2023-02-22T05:23:11.275Z,0.00
2023-02-22T05:24:11.284Z,0.00
2023-02-22T05:25:11.250Z,0.00
2023-02-22T05:26:11.724Z,0.00
2023-02-22T05:27:11.210Z,0.00
2023-02-22T05:28:11.259Z,0.00
2023-02-22T05:29:11.189Z,0.00
2023-02-22T05:30:11.235Z,0.00
2023-02-22T05:31:11.214Z,0.00
2023-02-22T05:32:11.192Z,0.00
2023-02-22T05:33:11.164Z,0.00
2023-02-22T05:34:11.146Z,0.00
2023-02-22T05:35:11.127Z,0.00
2023-02-22T05:36:11.139Z,0.00
2023-02-22T05:37:11.103Z,0.00
2023-02-22T05:38:11.183Z,0.00
2023-02-22T05:39:11.091Z,0.00
2023-02-22T05:40:11.107Z,0.00
2023-02-22T05:41:11.077Z,0.00
2023-02-22T05:42:11.060Z,0.00
2023-02-22T05:43:11.079Z,0.00
2023-02-22T05:44:11.055Z,0.00
2023-02-22T05:45:11.017Z,0.00
2023-02-22T05:46:11.246Z,0.00
2023-02-22T05:47:10.993Z,0.00
2023-02-22T05:48:10.994Z,0.00
2023-02-22T05:49:10.972Z,0.00
2023-02-22T05:50:10.973Z,0.00
2023-02-22T05:51:10.962Z,0.00
2023-02-22T05:52:10.951Z,0.00
2023-02-22T05:53:10.952Z,0.00
2023-02-22T05:54:10.940Z,0.00
2023-02-22T05:55:10.932Z,0.00
2023-02-22T05:56:10.912Z,0.00
2023-02-22T05:57:10.879Z,0.00
2023-02-22T05:58:10.881Z,0.00
2023-02-22T05:59:10.879Z,0.00
2023-02-22T06:00:10.872Z,0.00
2023-02-22T06:01:10.840Z,0.00
2023-02-22T06:02:10.856Z,0.00
2023-02-22T06:03:10.809Z,0.00
2023-02-22T06:04:10.836Z,0.00
2023-02-22T06:05:10.834Z,0.00
2023-02-22T06:06:10.807Z,0.00
2023-02-22T06:07:10.757Z,0.00
2023-02-22T06:08:10.763Z,0.00
2023-02-22T06:09:10.750Z,0.00
2023-02-22T06:10:10.746Z,0.00
2023-02-22T06:11:10.740Z,0.00
2023-02-22T06:12:10.737Z,0.00
2023-02-22T06:13:10.718Z,0.00
2023-02-22T06:14:10.705Z,0.00
2023-02-22T06:15:10.686Z,0.00
2023-02-22T06:16:10.711Z,0.00
2023-02-22T06:17:10.688Z,0.00
2023-02-22T06:18:10.695Z,0.00
2023-02-22T06:19:10.649Z,0.00
2023-02-22T06:20:10.648Z,0.00
2023-02-22T06:21:10.602Z,0.00
2023-02-22T06:22:10.613Z,0.00
2023-02-22T06:23:10.576Z,0.00
2023-02-22T06:24:10.598Z,0.00
2023-02-22T06:25:10.556Z,0.00
2023-02-22T06:26:10.561Z,0.00
2023-02-22T06:27:10.554Z,0.00
2023-02-22T06:28:10.533Z,0.00
2023-02-22T06:29:10.625Z,0.00
2023-02-22T06:30:13.141Z,0.00
2023-02-22T06:31:10.508Z,0.00
2023-02-22T06:32:10.547Z,0.00
2023-02-22T06:33:10.471Z,0.00
2023-02-22T06:34:10.501Z,0.00
2023-02-22T06:35:10.470Z,0.00
2023-02-22T06:36:10.464Z,0.00
2023-02-22T06:37:10.438Z,0.00
2023-02-22T06:38:10.436Z,0.00
2023-02-22T06:39:10.404Z,0.00
2023-02-22T06:40:10.417Z,0.00
2023-02-22T06:41:10.424Z,0.00
2023-02-22T06:42:10.468Z,0.00
2023-02-22T06:43:10.360Z,0.00
2023-02-22T06:44:10.355Z,0.00
2023-02-22T06:45:10.344Z,5.62
2023-02-22T06:46:10.343Z,5.62
2023-02-22T06:47:10.330Z,5.62
2023-02-22T06:48:10.325Z,5.62
2023-02-22T06:49:10.306Z,5.62
2023-02-22T06:50:10.289Z,5.62
2023-02-22T06:51:10.301Z,5.62
2023-02-22T06:52:10.259Z,5.62
2023-02-22T06:53:10.251Z,5.62
2023-02-22T06:54:10.264Z,5.62
2023-02-22T06:55:10.228Z,5.62
2023-02-22T06:56:10.236Z,5.62
2023-02-22T06:57:10.228Z,5.62
2023-02-22T06:58:10.196Z,5.62
2023-02-22T06:59:10.180Z,5.62
2023-02-22T07:00:10.168Z,5.62
2023-02-22T07:01:10.245Z,5.62
2023-02-22T07:02:10.164Z,5.62
2023-02-22T07:03:10.171Z,11.25
2023-02-22T07:04:10.137Z,11.25
2023-02-22T07:05:10.107Z,11.25
2023-02-22T07:06:10.122Z,11.25
2023-02-22T07:07:10.121Z,11.25
2023-02-22T07:08:10.086Z,11.25
2023-02-22T07:09:10.062Z,11.25
2023-02-22T07:10:10.078Z,11.25
2023-02-22T07:11:10.048Z,11.25
2023-02-22T07:12:10.182Z,11.25
2023-02-22T07:13:10.032Z,11.25
2023-02-22T07:14:10.028Z,11.25
2023-02-22T07:15:10.860Z,11.25
2023-02-22T07:16:10.040Z,11.25
2023-02-22T07:17:09.988Z,11.25
2023-02-22T07:18:09.982Z,16.88
2023-02-22T07:19:09.952Z,16.88
2023-02-22T07:20:09.960Z,16.88
2023-02-22T07:21:09.942Z,16.88
2023-02-22T07:22:09.951Z,16.88
2023-02-22T07:23:09.911Z,16.88
2023-02-22T07:24:09.917Z,16.88
2023-02-22T07:25:09.909Z,16.88
2023-02-22T07:26:09.888Z,16.88
2023-02-22T07:27:09.875Z,16.88
2023-02-22T07:28:09.915Z,16.88
2023-02-22T07:29:09.859Z,16.88
2023-02-22T07:30:09.854Z,16.88
2023-02-22T07:31:09.855Z,16.88
2023-02-22T07:32:10.035Z,16.88
2023-02-22T07:33:09.870Z,22.50
2023-02-22T07:34:09.827Z,22.50
2023-02-22T07:35:09.819Z,22.50
2023-02-22T07:36:09.794Z,22.50
2023-02-22T07:37:09.772Z,22.50
2023-02-22T07:38:09.769Z,22.50
2023-02-22T07:39:09.772Z,22.50
2023-02-22T07:40:09.734Z,22.50
2023-02-22T07:41:09.730Z,22.50
2023-02-22T07:42:09.711Z,22.50
2023-02-22T07:43:09.686Z,22.50
2023-02-22T07:44:09.688Z,22.50
2023-02-22T07:45:09.672Z,22.50
2023-02-22T07:46:09.682Z,28.12
2023-02-22T07:47:09.639Z,28.12
2023-02-22T07:48:09.652Z,28.12
2023-02-22T07:49:09.648Z,28.12
2023-02-22T07:50:09.623Z,28.12
2023-02-22T07:51:09.672Z,28.12
2023-02-22T07:52:09.612Z,28.12
2023-02-22T07:53:09.575Z,28.12
2023-02-22T07:54:09.580Z,28.12
2023-02-22T07:55:09.599Z,28.12
2023-02-22T07:56:09.569Z,28.12
2023-02-22T07:57:09.531Z,28.12
2023-02-22T07:58:09.541Z,28.12
2023-02-22T07:59:09.526Z,28.12
2023-02-22T08:00:09.499Z,33.75
2023-02-22T08:01:09.501Z,33.75
2023-02-22T08:02:09.528Z,33.75
2023-02-22T08:03:09.503Z,33.75
2023-02-22T08:04:09.466Z,33.75
2023-02-22T08:05:09.465Z,33.75
2023-02-22T08:06:09.428Z,33.75
2023-02-22T08:07:09.428Z,33.75
2023-02-22T08:08:09.450Z,33.75
2023-02-22T08:09:09.412Z,33.75
2023-02-22T08:10:09.388Z,33.75
2023-02-22T08:11:09.379Z,33.75
2023-02-22T08:12:09.375Z,33.75
2023-02-22T08:13:09.374Z,39.38
2023-02-22T08:14:09.357Z,39.38
2023-02-22T08:15:09.363Z,39.38
2023-02-22T08:16:09.328Z,39.38
2023-02-22T08:17:09.326Z,39.38
2023-02-22T08:18:09.335Z,39.38
2023-02-22T08:19:09.300Z,39.38
2023-02-22T08:20:09.281Z,39.38
2023-02-22T08:21:09.279Z,39.38
2023-02-22T08:22:09.259Z,39.38
2023-02-22T08:23:09.256Z,39.38
2023-02-22T08:24:09.237Z,39.38
2023-02-22T08:25:09.210Z,39.38
2023-02-22T08:26:09.244Z,39.38
2023-02-22T08:27:09.220Z,39.38
2023-02-22T08:28:09.216Z,39.38
2023-02-22T08:29:09.168Z,39.38
2023-02-22T08:30:09.205Z,39.38
2023-02-22T08:31:09.298Z,39.38
2023-02-22T08:32:09.326Z,39.38
2023-02-22T08:33:09.336Z,39.38
2023-02-22T08:34:09.124Z,39.38
2023-02-22T08:35:09.137Z,39.38
2023-02-22T08:36:09.114Z,39.38
2023-02-22T08:37:09.080Z,39.38
2023-02-22T08:38:09.096Z,39.38
2023-02-22T08:39:09.060Z,39.38
2023-02-22T08:40:09.074Z,39.38
2023-02-22T08:41:09.061Z,39.38
2023-02-22T08:42:09.030Z,39.38
2023-02-22T08:43:09.049Z,39.38
2023-02-22T08:44:09.029Z,39.38
2023-02-22T08:45:09.002Z,39.38
2023-02-22T08:46:09.008Z,39.38
2023-02-22T08:47:16.041Z,45.00
2023-02-22T08:48:12.549Z,45.00
2023-02-22T08:49:08.968Z,45.00
2023-02-22T08:50:09.661Z,45.00
2023-02-22T08:51:08.935Z,45.00
2023-02-22T08:52:08.903Z,45.00
2023-02-22T08:53:08.936Z,45.00
2023-02-22T08:54:08.876Z,45.00
2023-02-22T08:55:08.884Z,45.00
2023-02-22T08:56:08.850Z,45.00
2023-02-22T08:57:08.844Z,45.00
2023-02-22T08:58:08.860Z,45.00
2023-02-22T08:59:08.975Z,45.00
2023-02-22T09:00:08.816Z,45.00
2023-02-22T09:01:08.815Z,45.00
2023-02-22T09:02:08.860Z,45.00
2023-02-22T09:03:08.809Z,45.00
2023-02-22T09:04:08.766Z,45.00
2023-02-22T09:05:08.796Z,45.00
2023-02-22T09:06:08.887Z,45.00
2023-02-22T09:07:08.752Z,45.00
2023-02-22T09:08:08.757Z,45.00
2023-02-22T09:09:08.734Z,45.00
2023-02-22T09:10:08.707Z,45.00
2023-02-22T09:11:08.716Z,45.00
2023-02-22T09:12:08.706Z,45.00
2023-02-22T09:13:08.699Z,45.00
2023-02-22T09:14:08.652Z,45.00
2023-02-22T09:15:08.659Z,50.62
2023-02-22T09:16:08.655Z,50.62
2023-02-22T09:17:08.650Z,50.62
2023-02-22T09:18:10.838Z,50.62
2023-02-22T09:19:08.639Z,50.62
2023-02-22T09:20:08.636Z,50.62
2023-02-22T09:21:08.584Z,50.62
2023-02-22T09:22:08.558Z,50.62
2023-02-22T09:23:08.560Z,50.62
2023-02-22T09:24:08.596Z,50.62
2023-02-22T09:25:16.743Z,50.62
2023-02-22T09:26:09.516Z,50.62
2023-02-22T09:27:08.515Z,50.62
2023-02-22T09:28:08.495Z,50.62
2023-02-22T09:29:08.486Z,50.62
2023-02-22T09:30:08.505Z,50.62
2023-02-22T09:31:08.493Z,50.62
2023-02-22T09:32:08.698Z,50.62
2023-02-22T09:33:08.587Z,50.62
2023-02-22T09:34:08.421Z,50.62
2023-02-22T09:35:08.418Z,50.62
2023-02-22T09:36:08.425Z,50.62
2023-02-22T09:37:08.410Z,50.62
2023-02-22T09:38:08.419Z,50.62
2023-02-22T09:39:08.393Z,50.62
2023-02-22T09:40:08.387Z,50.62
2023-02-22T09:41:08.361Z,50.62
2023-02-22T09:42:08.361Z,50.62
2023-02-22T09:43:08.361Z,50.62
2023-02-22T09:44:08.328Z,50.62
2023-02-22T09:45:08.320Z,50.62
2023-02-22T09:46:08.341Z,50.62
2023-02-22T09:47:08.304Z,50.62
2023-02-22T09:48:21.299Z,56.25
2023-02-22T09:49:09.259Z,56.25
2023-02-22T09:50:08.248Z,56.25
2023-02-22T09:51:08.404Z,56.25
2023-02-22T09:52:08.225Z,56.25
2023-02-22T09:53:08.237Z,56.25
2023-02-22T09:54:08.195Z,56.25
2023-02-22T09:55:08.223Z,56.25
2023-02-22T09:56:08.194Z,56.25
2023-02-22T09:57:08.178Z,56.25
2023-02-22T09:58:08.159Z,56.25
2023-02-22T09:59:08.164Z,56.25
2023-02-22T10:00:08.156Z,56.25
2023-02-22T10:01:08.149Z,56.25
2023-02-22T10:02:08.099Z,61.88
2023-02-22T10:03:08.132Z,61.88
2023-02-22T10:04:08.116Z,61.88
2023-02-22T10:05:08.190Z,61.88
2023-02-22T10:06:08.154Z,61.88
2023-02-22T10:07:08.067Z,61.88
2023-02-22T10:08:08.050Z,61.88
2023-02-22T10:09:08.103Z,61.88
2023-02-22T10:10:08.023Z,61.88
2023-02-22T10:11:08.057Z,61.88
2023-02-22T10:12:08.007Z,67.50
2023-02-22T10:13:08.007Z,67.50
2023-02-22T10:14:07.986Z,67.50
2023-02-22T10:15:07.971Z,67.50
2023-02-22T10:16:08.050Z,67.50
2023-02-22T10:17:07.986Z,67.50
2023-02-22T10:18:07.947Z,67.50
2023-02-22T10:19:07.931Z,67.50
2023-02-22T10:20:07.918Z,67.50
2023-02-22T10:21:07.994Z,67.50
2023-02-22T10:22:07.910Z,67.50
2023-02-22T10:23:07.913Z,67.50
2023-02-22T10:24:08.324Z,67.50
2023-02-22T10:25:09.657Z,67.50
2023-02-22T10:26:07.898Z,67.50
2023-02-22T10:27:07.844Z,67.50
2023-02-22T10:28:07.831Z,67.50
2023-02-22T10:29:07.851Z,73.12
2023-02-22T10:30:23.274Z,67.50
2023-02-22T10:31:08.894Z,67.50
2023-02-22T10:32:07.861Z,67.50
2023-02-22T10:33:07.783Z,67.50
2023-02-22T10:34:07.760Z,67.50
2023-02-22T10:35:07.797Z,67.50
2023-02-22T10:36:07.785Z,67.50
2023-02-22T10:37:07.741Z,67.50
2023-02-22T10:38:07.707Z,67.50
2023-02-22T10:39:07.726Z,67.50
2023-02-22T10:40:07.695Z,67.50
2023-02-22T10:41:07.717Z,67.50
2023-02-22T10:42:07.663Z,67.50
2023-02-22T10:43:07.665Z,67.50
2023-02-22T10:44:07.761Z,67.50
2023-02-22T10:45:07.679Z,67.50
2023-02-22T10:46:07.719Z,67.50
2023-02-22T10:47:07.649Z,67.50
2023-02-22T10:48:07.607Z,67.50
2023-02-22T10:49:07.627Z,67.50
2023-02-22T10:50:07.578Z,67.50
2023-02-22T10:51:07.710Z,67.50
2023-02-22T10:52:07.566Z,67.50
2023-02-22T10:53:07.550Z,67.50
2023-02-22T10:54:07.619Z,67.50
2023-02-22T10:55:15.352Z,73.12
2023-02-22T10:56:08.581Z,73.12
2023-02-22T10:57:07.503Z,73.12
2023-02-22T10:58:07.500Z,73.12
2023-02-22T10:59:07.478Z,73.12
2023-02-22T11:00:07.484Z,73.12
2023-02-22T11:01:07.552Z,73.12
2023-02-22T11:02:07.489Z,73.12
2023-02-22T11:03:07.439Z,73.12
2023-02-22T11:04:08.362Z,73.12
2023-02-22T11:05:07.460Z,78.75
2023-02-22T11:06:07.397Z,73.12
2023-02-22T11:07:07.415Z,73.12
2023-02-22T11:08:07.395Z,73.12
2023-02-22T11:09:07.360Z,73.12
2023-02-22T11:10:07.355Z,73.12
2023-02-22T11:11:07.395Z,73.12
2023-02-22T11:12:07.340Z,73.12
2023-02-22T11:13:07.370Z,73.12
2023-02-22T11:14:07.337Z,73.12
2023-02-22T11:15:07.313Z,73.12
2023-02-22T11:16:07.356Z,73.12
2023-02-22T11:17:07.292Z,73.12
2023-02-22T11:18:08.879Z,73.12
2023-02-22T11:19:07.266Z,73.12
2023-02-22T11:20:07.244Z,73.12
2023-02-22T11:21:07.260Z,73.12
2023-02-22T11:22:07.216Z,73.12
2023-02-22T11:23:07.221Z,73.12
2023-02-22T11:24:07.195Z,67.50
2023-02-22T11:25:07.192Z,73.12
2023-02-22T11:26:07.217Z,67.50
2023-02-22T11:27:07.203Z,73.12
2023-02-22T11:28:07.141Z,67.50
2023-02-22T11:29:07.162Z,67.50
2023-02-22T11:30:07.178Z,67.50
2023-02-22T11:31:07.342Z,67.50
2023-02-22T11:32:07.142Z,67.50
2023-02-22T11:33:07.114Z,73.12
2023-02-22T11:34:07.090Z,67.50
2023-02-22T11:35:09.293Z,67.50
2023-02-22T11:36:07.127Z,67.50
2023-02-22T11:37:07.063Z,67.50
2023-02-22T11:38:07.036Z,73.12
2023-02-22T11:39:07.053Z,73.12
2023-02-22T11:40:07.000Z,73.12
2023-02-22T11:41:07.142Z,73.12
2023-02-22T11:42:07.007Z,73.12
2023-02-22T11:43:06.974Z,67.50
2023-02-22T11:44:06.978Z,73.12
2023-02-22T11:45:06.974Z,73.12
2023-02-22T11:46:07.070Z,73.12
2023-02-22T11:47:07.073Z,67.50
2023-02-22T11:48:06.906Z,67.50
2023-02-22T11:49:06.949Z,67.50
2023-02-22T11:50:06.910Z,67.50
2023-02-22T11:51:07.045Z,67.50
2023-02-22T11:52:06.886Z,67.50
2023-02-22T11:53:06.884Z,73.12
2023-02-22T11:54:06.839Z,73.12
2023-02-22T11:55:06.876Z,73.12
2023-02-22T11:56:06.898Z,67.50
2023-02-22T11:57:06.812Z,67.50
2023-02-22T11:58:06.814Z,67.50
2023-02-22T11:59:06.802Z,67.50
2023-02-22T12:00:06.831Z,73.12
2023-02-22T12:01:06.927Z,67.50
2023-02-22T12:02:06.750Z,67.50
2023-02-22T12:03:06.765Z,67.50
2023-02-22T12:04:06.902Z,73.12
2023-02-22T12:05:06.819Z,67.50
2023-02-22T12:06:06.809Z,67.50
2023-02-22T12:07:06.721Z,67.50
2023-02-22T12:08:18.893Z,67.50
2023-02-22T12:09:07.681Z,67.50
2023-02-22T12:10:06.667Z,67.50
2023-02-22T12:11:06.810Z,67.50
2023-02-22T12:12:06.657Z,67.50
2023-02-22T12:13:06.637Z,67.50
2023-02-22T12:14:06.642Z,67.50
2023-02-22T12:15:06.622Z,73.12
2023-02-22T12:16:06.730Z,67.50
2023-02-22T12:17:06.593Z,67.50
2023-02-22T12:18:06.623Z,67.50
2023-02-22T12:19:06.574Z,67.50
2023-02-22T12:20:06.551Z,67.50
2023-02-22T12:21:06.654Z,67.50
2023-02-22T12:22:06.546Z,67.50
2023-02-22T12:23:06.532Z,67.50
2023-02-22T12:24:06.513Z,67.50
2023-02-22T12:25:10.232Z,67.50
2023-02-22T12:26:06.616Z,67.50
2023-02-22T12:27:06.853Z,67.50
2023-02-22T12:28:15.596Z,67.50
2023-02-22T12:29:07.456Z,67.50
2023-02-22T12:30:06.586Z,67.50
2023-02-22T12:31:06.465Z,67.50
2023-02-22T12:32:06.461Z,61.88
2023-02-22T12:33:07.028Z,67.50
2023-02-22T12:34:06.507Z,61.88
2023-02-22T12:35:06.396Z,67.50
2023-02-22T12:36:06.532Z,67.50
2023-02-22T12:37:06.374Z,67.50
2023-02-22T12:38:06.372Z,67.50
2023-02-22T12:39:07.711Z,67.50
2023-02-22T12:40:06.334Z,67.50
2023-02-22T12:41:06.450Z,67.50
2023-02-22T12:42:06.299Z,67.50
2023-02-22T12:43:06.340Z,67.50
2023-02-22T12:44:06.271Z,67.50
2023-02-22T12:45:07.389Z,67.50
2023-02-22T12:46:06.518Z,67.50
2023-02-22T12:47:06.252Z,67.50
2023-02-22T12:48:06.240Z,67.50
2023-02-22T12:49:06.275Z,67.50
2023-02-22T12:50:06.214Z,73.12
2023-02-22T12:51:06.231Z,73.12
2023-02-22T12:52:20.648Z,73.12
2023-02-22T12:53:07.195Z,78.75
2023-02-22T12:54:06.187Z,78.75
2023-02-22T12:55:06.166Z,78.75
2023-02-22T12:56:06.293Z,84.38
2023-02-22T12:57:06.161Z,84.38
2023-02-22T12:58:06.136Z,84.38
2023-02-22T12:59:06.110Z,84.38
2023-02-22T13:00:06.145Z,78.75
2023-02-22T13:01:07.283Z,78.75
2023-02-22T13:02:06.100Z,78.75
2023-02-22T13:03:06.086Z,78.75
2023-02-22T13:04:19.742Z,73.12
2023-02-22T13:05:07.130Z,73.12
2023-02-22T13:06:06.158Z,73.12